sensor_id;sensor_type;location;lat;lon;timestamp;P1;durP1;ratioP1;P2;durP2;ratioP2
50417;SDS011;36346;48.280;14.292;2024-03-22T00:02:20;17.80;;;17.80;;
50417;SDS011;36346;48.280;14.292;2024-03-22T00:04:48;17.74;;;17.74;;
50417;SDS011;36346;48.280;14.292;2024-03-22T00:07:15;18.22;;;18.22;;
50417;SDS011;36346;48.280;14.292;2024-03-22T00:09:42;19.51;;;19.49;;
50417;SDS011;36346;48.280;14.292;2024-03-22T00:12:09;18.71;;;18.71;;
50417;SDS011;36346;48.280;14.292;2024-03-22T00:14:36;17.91;;;17.91;;
50417;SDS011;36346;48.280;14.292;2024-03-22T00:17:03;17.48;;;17.48;;
50417;SDS011;36346;48.280;14.292;2024-03-22T00:19:30;17.74;;;17.74;;
50417;SDS011;36346;48.280;14.292;2024-03-22T00:21:57;18.02;;;18.02;;
50417;SDS011;36346;48.280;14.292;2024-03-22T00:24:24;19.26;;;19.26;;
50417;SDS011;36346;48.280;14.292;2024-03-22T00:26:51;18.10;;;18.10;;
50417;SDS011;36346;48.280;14.292;2024-03-22T00:29:18;17.31;;;17.31;;
50417;SDS011;36346;48.280;14.292;2024-03-22T00:31:45;17.76;;;17.74;;
50417;SDS011;36346;48.280;14.292;2024-03-22T00:34:12;17.65;;;17.65;;
50417;SDS011;36346;48.280;14.292;2024-03-22T00:36:39;17.42;;;17.42;;
50417;SDS011;36346;48.280;14.292;2024-03-22T00:39:06;17.70;;;17.70;;
50417;SDS011;36346;48.280;14.292;2024-03-22T00:41:34;18.31;;;18.31;;
50417;SDS011;36346;48.280;14.292;2024-03-22T00:44:01;18.00;;;17.96;;
50417;SDS011;36346;48.280;14.292;2024-03-22T00:46:28;17.61;;;17.61;;
50417;SDS011;36346;48.280;14.292;2024-03-22T00:48:55;17.33;;;17.33;;
50417;SDS011;36346;48.280;14.292;2024-03-22T00:51:22;17.84;;;17.84;;
50417;SDS011;36346;48.280;14.292;2024-03-22T00:53:49;17.95;;;17.95;;
50417;SDS011;36346;48.280;14.292;2024-03-22T00:56:16;18.43;;;18.42;;
50417;SDS011;36346;48.280;14.292;2024-03-22T00:58:43;18.48;;;18.46;;
50417;SDS011;36346;48.280;14.292;2024-03-22T01:01:10;18.88;;;18.88;;
50417;SDS011;36346;48.280;14.292;2024-03-22T01:03:37;19.67;;;19.47;;
50417;SDS011;36346;48.280;14.292;2024-03-22T01:06:04;20.01;;;19.88;;
50417;SDS011;36346;48.280;14.292;2024-03-22T01:08:32;19.71;;;19.71;;
50417;SDS011;36346;48.280;14.292;2024-03-22T01:10:59;19.46;;;19.46;;
50417;SDS011;36346;48.280;14.292;2024-03-22T01:13:26;19.58;;;19.58;;
50417;SDS011;36346;48.280;14.292;2024-03-22T01:15:53;20.19;;;20.19;;
50417;SDS011;36346;48.280;14.292;2024-03-22T01:18:20;19.57;;;19.57;;
50417;SDS011;36346;48.280;14.292;2024-03-22T01:20:47;19.95;;;19.95;;
50417;SDS011;36346;48.280;14.292;2024-03-22T01:23:14;19.90;;;19.88;;
50417;SDS011;36346;48.280;14.292;2024-03-22T01:25:41;21.33;;;21.18;;
50417;SDS011;36346;48.280;14.292;2024-03-22T01:28:08;21.37;;;21.30;;
50417;SDS011;36346;48.280;14.292;2024-03-22T01:30:34;21.23;;;21.23;;
50417;SDS011;36346;48.280;14.292;2024-03-22T01:33:03;21.00;;;20.97;;
50417;SDS011;36346;48.280;14.292;2024-03-22T01:35:30;21.55;;;21.54;;
50417;SDS011;36346;48.280;14.292;2024-03-22T01:37:57;21.09;;;21.08;;
50417;SDS011;36346;48.280;14.292;2024-03-22T01:40:24;20.33;;;20.30;;
50417;SDS011;36346;48.280;14.292;2024-03-22T01:42:58;20.32;;;20.31;;
50417;SDS011;36346;48.280;14.292;2024-03-22T01:45:27;20.54;;;20.54;;
50417;SDS011;36346;48.280;14.292;2024-03-22T01:47:59;20.54;;;20.54;;
50417;SDS011;36346;48.280;14.292;2024-03-22T01:50:27;21.05;;;20.99;;
50417;SDS011;36346;48.280;14.292;2024-03-22T01:52:54;21.14;;;21.10;;
50417;SDS011;36346;48.280;14.292;2024-03-22T01:55:22;22.05;;;22.02;;
50417;SDS011;36346;48.280;14.292;2024-03-22T01:57:49;22.38;;;22.25;;
50417;SDS011;36346;48.280;14.292;2024-03-22T02:00:21;21.64;;;21.60;;
50417;SDS011;36346;48.280;14.292;2024-03-22T02:02:48;21.87;;;21.87;;
50417;SDS011;36346;48.280;14.292;2024-03-22T02:05:16;21.49;;;21.49;;
50417;SDS011;36346;48.280;14.292;2024-03-22T02:07:48;21.60;;;21.58;;
50417;SDS011;36346;48.280;14.292;2024-03-22T02:10:15;21.87;;;21.87;;
50417;SDS011;36346;48.280;14.292;2024-03-22T02:12:43;21.62;;;21.62;;
50417;SDS011;36346;48.280;14.292;2024-03-22T02:15:10;22.42;;;22.41;;
50417;SDS011;36346;48.280;14.292;2024-03-22T02:17:37;22.29;;;22.27;;
50417;SDS011;36346;48.280;14.292;2024-03-22T02:20:04;21.96;;;21.92;;
50417;SDS011;36346;48.280;14.292;2024-03-22T02:22:32;22.58;;;22.58;;
50417;SDS011;36346;48.280;14.292;2024-03-22T02:24:59;23.24;;;23.24;;
50417;SDS011;36346;48.280;14.292;2024-03-22T02:27:26;23.06;;;23.06;;
50417;SDS011;36346;48.280;14.292;2024-03-22T02:29:54;23.34;;;23.32;;
50417;SDS011;36346;48.280;14.292;2024-03-22T02:32:21;22.92;;;22.83;;
50417;SDS011;36346;48.280;14.292;2024-03-22T02:34:48;23.34;;;23.34;;
50417;SDS011;36346;48.280;14.292;2024-03-22T02:37:15;23.66;;;23.66;;
50417;SDS011;36346;48.280;14.292;2024-03-22T02:39:42;23.47;;;23.36;;
50417;SDS011;36346;48.280;14.292;2024-03-22T02:42:09;23.70;;;23.63;;
50417;SDS011;36346;48.280;14.292;2024-03-22T02:44:37;24.64;;;24.62;;
50417;SDS011;36346;48.280;14.292;2024-03-22T02:47:09;23.43;;;23.41;;
50417;SDS011;36346;48.280;14.292;2024-03-22T02:49:38;23.78;;;23.75;;
50417;SDS011;36346;48.280;14.292;2024-03-22T02:52:05;23.99;;;23.94;;
50417;SDS011;36346;48.280;14.292;2024-03-22T02:54:32;24.49;;;24.32;;
50417;SDS011;36346;48.280;14.292;2024-03-22T02:56:59;24.19;;;24.17;;
50417;SDS011;36346;48.280;14.292;2024-03-22T02:59:28;23.75;;;23.67;;
50417;SDS011;36346;48.280;14.292;2024-03-22T03:01:55;24.18;;;23.99;;
50417;SDS011;36346;48.280;14.292;2024-03-22T03:04:23;24.06;;;23.85;;
50417;SDS011;36346;48.280;14.292;2024-03-22T03:06:50;23.79;;;23.66;;
50417;SDS011;36346;48.280;14.292;2024-03-22T03:09:17;24.39;;;24.18;;
50417;SDS011;36346;48.280;14.292;2024-03-22T03:11:44;23.71;;;23.52;;
50417;SDS011;36346;48.280;14.292;2024-03-22T03:14:11;23.62;;;23.60;;
50417;SDS011;36346;48.280;14.292;2024-03-22T03:16:38;23.70;;;23.26;;
50417;SDS011;36346;48.280;14.292;2024-03-22T03:19:05;23.41;;;23.41;;
50417;SDS011;36346;48.280;14.292;2024-03-22T03:21:32;24.08;;;24.08;;
50417;SDS011;36346;48.280;14.292;2024-03-22T03:23:59;24.25;;;24.24;;
50417;SDS011;36346;48.280;14.292;2024-03-22T03:26:26;23.63;;;23.60;;
50417;SDS011;36346;48.280;14.292;2024-03-22T03:28:53;23.43;;;23.41;;
50417;SDS011;36346;48.280;14.292;2024-03-22T03:31:21;23.55;;;23.54;;
50417;SDS011;36346;48.280;14.292;2024-03-22T03:33:49;24.01;;;23.99;;
50417;SDS011;36346;48.280;14.292;2024-03-22T03:36:15;24.31;;;24.26;;
50417;SDS011;36346;48.280;14.292;2024-03-22T03:38:43;23.93;;;23.92;;
50417;SDS011;36346;48.280;14.292;2024-03-22T03:41:10;23.78;;;23.77;;
50417;SDS011;36346;48.280;14.292;2024-03-22T03:43:37;24.90;;;24.86;;
50417;SDS011;36346;48.280;14.292;2024-03-22T03:46:04;25.32;;;25.28;;
50417;SDS011;36346;48.280;14.292;2024-03-22T03:48:31;24.11;;;24.05;;
50417;SDS011;36346;48.280;14.292;2024-03-22T03:50:59;25.01;;;24.90;;
50417;SDS011;36346;48.280;14.292;2024-03-22T03:53:29;24.83;;;24.83;;
50417;SDS011;36346;48.280;14.292;2024-03-22T03:55:57;25.42;;;25.41;;
50417;SDS011;36346;48.280;14.292;2024-03-22T03:58:24;25.97;;;25.94;;
50417;SDS011;36346;48.280;14.292;2024-03-22T04:00:51;25.45;;;25.18;;
50417;SDS011;36346;48.280;14.292;2024-03-22T04:03:18;25.02;;;24.97;;
50417;SDS011;36346;48.280;14.292;2024-03-22T04:05:45;25.77;;;25.58;;
50417;SDS011;36346;48.280;14.292;2024-03-22T04:08:12;26.05;;;25.85;;
50417;SDS011;36346;48.280;14.292;2024-03-22T04:10:39;26.29;;;26.26;;
50417;SDS011;36346;48.280;14.292;2024-03-22T04:13:06;26.81;;;26.35;;
50417;SDS011;36346;48.280;14.292;2024-03-22T04:15:34;26.70;;;26.66;;
50417;SDS011;36346;48.280;14.292;2024-03-22T04:18:01;28.22;;;27.94;;
50417;SDS011;36346;48.280;14.292;2024-03-22T04:20:28;43.20;;;42.77;;
50417;SDS011;36346;48.280;14.292;2024-03-22T04:22:55;35.85;;;35.55;;
50417;SDS011;36346;48.280;14.292;2024-03-22T04:25:22;26.61;;;26.59;;
50417;SDS011;36346;48.280;14.292;2024-03-22T04:27:49;26.18;;;26.17;;
50417;SDS011;36346;48.280;14.292;2024-03-22T04:30:16;27.23;;;27.23;;
50417;SDS011;36346;48.280;14.292;2024-03-22T04:32:45;27.25;;;27.06;;
50417;SDS011;36346;48.280;14.292;2024-03-22T04:35:13;26.54;;;26.37;;
50417;SDS011;36346;48.280;14.292;2024-03-22T04:37:40;26.85;;;26.77;;
50417;SDS011;36346;48.280;14.292;2024-03-22T04:40:07;26.16;;;26.10;;
50417;SDS011;36346;48.280;14.292;2024-03-22T04:42:36;26.33;;;26.23;;
50417;SDS011;36346;48.280;14.292;2024-03-22T04:45:03;27.08;;;27.04;;
50417;SDS011;36346;48.280;14.292;2024-03-22T04:47:31;26.59;;;26.54;;
50417;SDS011;36346;48.280;14.292;2024-03-22T04:49:58;26.38;;;26.24;;
50417;SDS011;36346;48.280;14.292;2024-03-22T04:52:26;27.56;;;27.28;;
50417;SDS011;36346;48.280;14.292;2024-03-22T04:54:53;27.07;;;26.94;;
50417;SDS011;36346;48.280;14.292;2024-03-22T04:57:20;27.73;;;27.57;;
50417;SDS011;36346;48.280;14.292;2024-03-22T04:59:47;27.46;;;27.01;;
50417;SDS011;36346;48.280;14.292;2024-03-22T05:02:15;27.46;;;27.25;;
50417;SDS011;36346;48.280;14.292;2024-03-22T05:04:43;26.64;;;26.50;;
50417;SDS011;36346;48.280;14.292;2024-03-22T05:07:10;27.59;;;27.51;;
50417;SDS011;36346;48.280;14.292;2024-03-22T05:09:37;27.69;;;27.64;;
50417;SDS011;36346;48.280;14.292;2024-03-22T05:12:04;28.33;;;28.04;;
50417;SDS011;36346;48.280;14.292;2024-03-22T05:14:32;28.93;;;28.45;;
50417;SDS011;36346;48.280;14.292;2024-03-22T05:16:59;28.38;;;28.36;;
50417;SDS011;36346;48.280;14.292;2024-03-22T05:19:26;27.46;;;27.43;;
50417;SDS011;36346;48.280;14.292;2024-03-22T05:21:53;28.88;;;28.68;;
50417;SDS011;36346;48.280;14.292;2024-03-22T05:24:21;28.54;;;28.48;;
50417;SDS011;36346;48.280;14.292;2024-03-22T05:26:48;28.45;;;28.28;;
50417;SDS011;36346;48.280;14.292;2024-03-22T05:29:15;29.18;;;28.77;;
50417;SDS011;36346;48.280;14.292;2024-03-22T05:31:46;30.58;;;29.88;;
50417;SDS011;36346;48.280;14.292;2024-03-22T05:34:18;29.56;;;29.50;;
50417;SDS011;36346;48.280;14.292;2024-03-22T05:36:46;29.73;;;29.43;;
50417;SDS011;36346;48.280;14.292;2024-03-22T05:39:13;29.88;;;29.71;;
50417;SDS011;36346;48.280;14.292;2024-03-22T05:41:40;29.41;;;29.33;;
50417;SDS011;36346;48.280;14.292;2024-03-22T05:44:07;29.65;;;29.27;;
50417;SDS011;36346;48.280;14.292;2024-03-22T05:46:35;29.74;;;29.52;;
50417;SDS011;36346;48.280;14.292;2024-03-22T05:49:04;28.55;;;28.35;;
50417;SDS011;36346;48.280;14.292;2024-03-22T05:51:31;29.77;;;29.66;;
50417;SDS011;36346;48.280;14.292;2024-03-22T05:53:58;30.29;;;29.99;;
50417;SDS011;36346;48.280;14.292;2024-03-22T05:56:25;29.90;;;29.49;;
50417;SDS011;36346;48.280;14.292;2024-03-22T05:58:53;29.84;;;29.63;;
50417;SDS011;36346;48.280;14.292;2024-03-22T06:01:20;30.68;;;30.50;;
50417;SDS011;36346;48.280;14.292;2024-03-22T06:03:47;30.87;;;30.71;;
50417;SDS011;36346;48.280;14.292;2024-03-22T06:06:14;30.46;;;30.15;;
50417;SDS011;36346;48.280;14.292;2024-03-22T06:08:43;30.08;;;29.84;;
50417;SDS011;36346;48.280;14.292;2024-03-22T06:11:12;30.45;;;30.13;;
50417;SDS011;36346;48.280;14.292;2024-03-22T06:13:40;29.90;;;29.84;;
50417;SDS011;36346;48.280;14.292;2024-03-22T06:16:07;29.79;;;29.78;;
50417;SDS011;36346;48.280;14.292;2024-03-22T06:18:34;30.07;;;29.90;;
50417;SDS011;36346;48.280;14.292;2024-03-22T06:21:01;31.28;;;30.88;;
50417;SDS011;36346;48.280;14.292;2024-03-22T06:23:30;30.68;;;30.49;;
50417;SDS011;36346;48.280;14.292;2024-03-22T06:25:58;31.52;;;31.34;;
50417;SDS011;36346;48.280;14.292;2024-03-22T06:28:27;31.11;;;30.78;;
50417;SDS011;36346;48.280;14.292;2024-03-22T06:30:55;30.32;;;30.25;;
50417;SDS011;36346;48.280;14.292;2024-03-22T06:33:22;30.02;;;29.89;;
50417;SDS011;36346;48.280;14.292;2024-03-22T06:35:49;29.68;;;29.46;;
50417;SDS011;36346;48.280;14.292;2024-03-22T06:38:16;30.83;;;30.38;;
50417;SDS011;36346;48.280;14.292;2024-03-22T06:40:44;30.25;;;30.23;;
50417;SDS011;36346;48.280;14.292;2024-03-22T06:43:11;30.73;;;30.67;;
50417;SDS011;36346;48.280;14.292;2024-03-22T06:45:38;30.67;;;30.44;;
50417;SDS011;36346;48.280;14.292;2024-03-22T06:48:06;29.97;;;29.95;;
50417;SDS011;36346;48.280;14.292;2024-03-22T06:50:33;29.68;;;29.60;;
50417;SDS011;36346;48.280;14.292;2024-03-22T06:53:00;31.04;;;30.82;;
50417;SDS011;36346;48.280;14.292;2024-03-22T06:55:27;31.66;;;31.46;;
50417;SDS011;36346;48.280;14.292;2024-03-22T06:57:54;31.78;;;31.50;;
50417;SDS011;36346;48.280;14.292;2024-03-22T07:00:22;31.51;;;31.39;;
50417;SDS011;36346;48.280;14.292;2024-03-22T07:02:49;31.65;;;31.45;;
50417;SDS011;36346;48.280;14.292;2024-03-22T07:05:17;31.81;;;31.45;;
50417;SDS011;36346;48.280;14.292;2024-03-22T07:07:44;32.14;;;31.79;;
50417;SDS011;36346;48.280;14.292;2024-03-22T07:10:11;29.69;;;29.54;;
50417;SDS011;36346;48.280;14.292;2024-03-22T07:12:38;29.50;;;29.18;;
50417;SDS011;36346;48.280;14.292;2024-03-22T07:15:06;31.07;;;30.38;;
50417;SDS011;36346;48.280;14.292;2024-03-22T07:17:33;30.49;;;30.26;;
50417;SDS011;36346;48.280;14.292;2024-03-22T07:20:00;30.52;;;30.24;;
50417;SDS011;36346;48.280;14.292;2024-03-22T07:22:28;30.64;;;30.63;;
50417;SDS011;36346;48.280;14.292;2024-03-22T07:24:55;30.19;;;30.15;;
50417;SDS011;36346;48.280;14.292;2024-03-22T07:27:22;30.58;;;30.40;;
50417;SDS011;36346;48.280;14.292;2024-03-22T07:29:49;30.89;;;30.66;;
50417;SDS011;36346;48.280;14.292;2024-03-22T07:32:16;30.65;;;30.50;;
50417;SDS011;36346;48.280;14.292;2024-03-22T07:34:45;30.76;;;30.44;;
50417;SDS011;36346;48.280;14.292;2024-03-22T07:37:13;31.42;;;31.09;;
50417;SDS011;36346;48.280;14.292;2024-03-22T07:39:40;31.79;;;31.46;;
50417;SDS011;36346;48.280;14.292;2024-03-22T07:42:07;31.02;;;30.91;;
50417;SDS011;36346;48.280;14.292;2024-03-22T07:44:34;31.24;;;30.82;;
50417;SDS011;36346;48.280;14.292;2024-03-22T07:47:01;31.05;;;30.47;;
50417;SDS011;36346;48.280;14.292;2024-03-22T07:49:28;30.89;;;30.61;;
50417;SDS011;36346;48.280;14.292;2024-03-22T07:51:55;31.54;;;30.92;;
50417;SDS011;36346;48.280;14.292;2024-03-22T07:54:22;31.79;;;31.41;;
50417;SDS011;36346;48.280;14.292;2024-03-22T07:56:49;32.37;;;32.09;;
50417;SDS011;36346;48.280;14.292;2024-03-22T07:59:16;31.18;;;31.05;;
50417;SDS011;36346;48.280;14.292;2024-03-22T08:01:43;31.51;;;31.14;;
50417;SDS011;36346;48.280;14.292;2024-03-22T08:04:10;31.41;;;31.12;;
50417;SDS011;36346;48.280;14.292;2024-03-22T08:06:38;32.09;;;31.94;;
50417;SDS011;36346;48.280;14.292;2024-03-22T08:09:05;32.33;;;31.81;;
50417;SDS011;36346;48.280;14.292;2024-03-22T08:11:32;31.45;;;31.32;;
50417;SDS011;36346;48.280;14.292;2024-03-22T08:13:59;32.48;;;32.08;;
50417;SDS011;36346;48.280;14.292;2024-03-22T08:16:30;32.27;;;31.80;;
50417;SDS011;36346;48.280;14.292;2024-03-22T08:18:57;31.82;;;31.61;;
50417;SDS011;36346;48.280;14.292;2024-03-22T08:21:24;31.18;;;31.02;;
50417;SDS011;36346;48.280;14.292;2024-03-22T08:23:52;31.28;;;30.71;;
50417;SDS011;36346;48.280;14.292;2024-03-22T08:26:19;29.08;;;28.76;;
50417;SDS011;36346;48.280;14.292;2024-03-22T08:28:46;28.81;;;28.78;;
50417;SDS011;36346;48.280;14.292;2024-03-22T08:31:14;28.28;;;28.00;;
50417;SDS011;36346;48.280;14.292;2024-03-22T08:33:41;27.98;;;27.51;;
50417;SDS011;36346;48.280;14.292;2024-03-22T08:36:08;27.17;;;27.06;;
50417;SDS011;36346;48.280;14.292;2024-03-22T08:38:35;26.61;;;26.49;;
50417;SDS011;36346;48.280;14.292;2024-03-22T08:41:02;27.35;;;26.91;;
50417;SDS011;36346;48.280;14.292;2024-03-22T08:43:30;26.01;;;25.54;;
50417;SDS011;36346;48.280;14.292;2024-03-22T08:45:57;24.45;;;24.33;;
50417;SDS011;36346;48.280;14.292;2024-03-22T08:48:24;24.08;;;23.99;;
50417;SDS011;36346;48.280;14.292;2024-03-22T08:50:51;24.13;;;24.05;;
50417;SDS011;36346;48.280;14.292;2024-03-22T08:53:18;24.29;;;24.13;;
50417;SDS011;36346;48.280;14.292;2024-03-22T08:55:46;24.07;;;23.89;;
50417;SDS011;36346;48.280;14.292;2024-03-22T08:58:14;24.72;;;24.31;;
50417;SDS011;36346;48.280;14.292;2024-03-22T09:00:41;25.12;;;24.57;;
50417;SDS011;36346;48.280;14.292;2024-03-22T09:03:09;24.87;;;24.29;;
50417;SDS011;36346;48.280;14.292;2024-03-22T09:05:36;24.33;;;24.08;;
50417;SDS011;36346;48.280;14.292;2024-03-22T09:08:03;22.89;;;22.74;;
50417;SDS011;36346;48.280;14.292;2024-03-22T09:10:31;21.86;;;21.53;;
50417;SDS011;36346;48.280;14.292;2024-03-22T09:12:58;21.33;;;21.09;;
50417;SDS011;36346;48.280;14.292;2024-03-22T09:15:25;20.31;;;20.11;;
50417;SDS011;36346;48.280;14.292;2024-03-22T09:17:52;19.00;;;18.84;;
50417;SDS011;36346;48.280;14.292;2024-03-22T09:20:20;20.90;;;20.67;;
50417;SDS011;36346;48.280;14.292;2024-03-22T09:22:47;18.22;;;18.16;;
50417;SDS011;36346;48.280;14.292;2024-03-22T09:25:14;17.11;;;17.04;;
50417;SDS011;36346;48.280;14.292;2024-03-22T09:27:41;18.59;;;18.36;;
50417;SDS011;36346;48.280;14.292;2024-03-22T09:30:08;17.64;;;17.53;;
50417;SDS011;36346;48.280;14.292;2024-03-22T09:32:36;19.19;;;18.85;;
50417;SDS011;36346;48.280;14.292;2024-03-22T09:35:03;18.86;;;18.84;;
50417;SDS011;36346;48.280;14.292;2024-03-22T09:37:31;18.74;;;18.73;;
50417;SDS011;36346;48.280;14.292;2024-03-22T09:39:58;18.96;;;18.79;;
50417;SDS011;36346;48.280;14.292;2024-03-22T09:42:25;19.55;;;19.48;;
50417;SDS011;36346;48.280;14.292;2024-03-22T09:44:54;19.39;;;19.26;;
50417;SDS011;36346;48.280;14.292;2024-03-22T09:47:21;20.14;;;20.12;;
50417;SDS011;36346;48.280;14.292;2024-03-22T09:49:51;19.40;;;19.34;;
50417;SDS011;36346;48.280;14.292;2024-03-22T09:52:18;20.26;;;19.94;;
50417;SDS011;36346;48.280;14.292;2024-03-22T09:54:47;18.64;;;18.61;;
50417;SDS011;36346;48.280;14.292;2024-03-22T09:57:18;17.35;;;17.34;;
50417;SDS011;36346;48.280;14.292;2024-03-22T09:59:48;19.11;;;19.02;;
50417;SDS011;36346;48.280;14.292;2024-03-22T10:02:17;18.99;;;18.89;;
50417;SDS011;36346;48.280;14.292;2024-03-22T10:04:45;17.45;;;17.43;;
50417;SDS011;36346;48.280;14.292;2024-03-22T10:07:12;17.38;;;17.35;;
50417;SDS011;36346;48.280;14.292;2024-03-22T10:09:40;14.94;;;14.94;;
50417;SDS011;36346;48.280;14.292;2024-03-22T10:12:09;15.58;;;15.55;;
50417;SDS011;36346;48.280;14.292;2024-03-22T10:14:36;15.71;;;15.65;;
50417;SDS011;36346;48.280;14.292;2024-03-22T10:17:03;15.53;;;15.39;;
50417;SDS011;36346;48.280;14.292;2024-03-22T10:19:30;14.70;;;14.63;;
50417;SDS011;36346;48.280;14.292;2024-03-22T10:22:01;13.99;;;13.97;;
50417;SDS011;36346;48.280;14.292;2024-03-22T10:24:29;15.29;;;15.06;;
50417;SDS011;36346;48.280;14.292;2024-03-22T10:26:57;13.69;;;13.66;;
50417;SDS011;36346;48.280;14.292;2024-03-22T10:29:24;14.97;;;14.86;;
50417;SDS011;36346;48.280;14.292;2024-03-22T10:31:51;14.83;;;14.80;;
50417;SDS011;36346;48.280;14.292;2024-03-22T10:34:22;14.29;;;14.28;;
50417;SDS011;36346;48.280;14.292;2024-03-22T10:36:51;14.70;;;14.67;;
50417;SDS011;36346;48.280;14.292;2024-03-22T10:39:19;14.37;;;14.24;;
50417;SDS011;36346;48.280;14.292;2024-03-22T10:41:46;14.20;;;14.16;;
50417;SDS011;36346;48.280;14.292;2024-03-22T10:44:14;13.57;;;13.57;;
50417;SDS011;36346;48.280;14.292;2024-03-22T10:46:46;12.74;;;12.74;;
50417;SDS011;36346;48.280;14.292;2024-03-22T10:49:18;12.13;;;12.13;;
50417;SDS011;36346;48.280;14.292;2024-03-22T10:51:57;13.17;;;13.16;;
50417;SDS011;36346;48.280;14.292;2024-03-22T10:54:29;11.60;;;11.60;;
50417;SDS011;36346;48.280;14.292;2024-03-22T10:57:00;11.32;;;11.32;;
50417;SDS011;36346;48.280;14.292;2024-03-22T10:59:32;11.78;;;11.70;;
50417;SDS011;36346;48.280;14.292;2024-03-22T11:02:03;11.53;;;11.52;;
50417;SDS011;36346;48.280;14.292;2024-03-22T11:04:33;10.79;;;10.79;;
50417;SDS011;36346;48.280;14.292;2024-03-22T11:07:01;10.42;;;10.42;;
50417;SDS011;36346;48.280;14.292;2024-03-22T11:09:30;9.92;;;9.92;;
50417;SDS011;36346;48.280;14.292;2024-03-22T11:11:58;9.84;;;9.73;;
50417;SDS011;36346;48.280;14.292;2024-03-22T11:14:27;7.89;;;7.89;;
50417;SDS011;36346;48.280;14.292;2024-03-22T11:16:55;7.82;;;7.82;;
50417;SDS011;36346;48.280;14.292;2024-03-22T11:19:22;7.34;;;7.31;;
50417;SDS011;36346;48.280;14.292;2024-03-22T11:21:49;7.03;;;7.01;;
50417;SDS011;36346;48.280;14.292;2024-03-22T11:24:16;8.23;;;8.22;;
50417;SDS011;36346;48.280;14.292;2024-03-22T11:26:43;9.01;;;8.97;;
50417;SDS011;36346;48.280;14.292;2024-03-22T11:29:10;7.61;;;7.61;;
50417;SDS011;36346;48.280;14.292;2024-03-22T11:31:38;8.08;;;8.08;;
50417;SDS011;36346;48.280;14.292;2024-03-22T11:34:05;8.03;;;8.03;;
50417;SDS011;36346;48.280;14.292;2024-03-22T11:36:32;7.65;;;7.65;;
50417;SDS011;36346;48.280;14.292;2024-03-22T11:38:59;7.41;;;7.41;;
50417;SDS011;36346;48.280;14.292;2024-03-22T11:41:27;7.30;;;7.30;;
50417;SDS011;36346;48.280;14.292;2024-03-22T11:43:55;14.16;;;13.96;;
50417;SDS011;36346;48.280;14.292;2024-03-22T11:46:24;7.74;;;7.74;;
50417;SDS011;36346;48.280;14.292;2024-03-22T11:48:53;7.77;;;7.77;;
50417;SDS011;36346;48.280;14.292;2024-03-22T11:51:20;7.39;;;7.39;;
50417;SDS011;36346;48.280;14.292;2024-03-22T11:53:48;7.70;;;7.70;;
50417;SDS011;36346;48.280;14.292;2024-03-22T11:56:18;8.35;;;8.35;;
50417;SDS011;36346;48.280;14.292;2024-03-22T11:58:46;7.95;;;7.95;;
50417;SDS011;36346;48.280;14.292;2024-03-22T12:01:15;7.78;;;7.78;;
50417;SDS011;36346;48.280;14.292;2024-03-22T12:03:43;7.08;;;7.08;;
50417;SDS011;36346;48.280;14.292;2024-03-22T12:06:11;7.90;;;7.90;;
50417;SDS011;36346;48.280;14.292;2024-03-22T12:08:38;7.26;;;7.26;;
50417;SDS011;36346;48.280;14.292;2024-03-22T12:11:07;8.19;;;8.19;;
50417;SDS011;36346;48.280;14.292;2024-03-22T12:13:35;8.31;;;8.31;;
50417;SDS011;36346;48.280;14.292;2024-03-22T12:16:04;7.62;;;7.62;;
50417;SDS011;36346;48.280;14.292;2024-03-22T12:18:32;7.45;;;7.44;;
50417;SDS011;36346;48.280;14.292;2024-03-22T12:21:00;7.40;;;7.40;;
50417;SDS011;36346;48.280;14.292;2024-03-22T12:23:27;6.95;;;6.95;;
50417;SDS011;36346;48.280;14.292;2024-03-22T12:25:54;7.46;;;7.46;;
50417;SDS011;36346;48.280;14.292;2024-03-22T12:28:22;7.58;;;7.58;;
50417;SDS011;36346;48.280;14.292;2024-03-22T12:30:49;7.21;;;7.21;;
50417;SDS011;36346;48.280;14.292;2024-03-22T12:33:17;7.69;;;7.69;;
50417;SDS011;36346;48.280;14.292;2024-03-22T12:35:44;7.55;;;7.55;;
50417;SDS011;36346;48.280;14.292;2024-03-22T12:38:11;12.75;;;12.75;;
50417;SDS011;36346;48.280;14.292;2024-03-22T12:40:39;6.94;;;6.94;;
50417;SDS011;36346;48.280;14.292;2024-03-22T12:43:09;6.92;;;6.92;;
50417;SDS011;36346;48.280;14.292;2024-03-22T12:45:37;7.33;;;7.33;;
50417;SDS011;36346;48.280;14.292;2024-03-22T12:48:05;6.86;;;6.86;;
50417;SDS011;36346;48.280;14.292;2024-03-22T12:50:32;7.83;;;7.83;;
50417;SDS011;36346;48.280;14.292;2024-03-22T12:53:00;7.42;;;7.42;;
50417;SDS011;36346;48.280;14.292;2024-03-22T12:55:27;7.61;;;7.61;;
50417;SDS011;36346;48.280;14.292;2024-03-22T12:57:55;7.73;;;7.73;;
50417;SDS011;36346;48.280;14.292;2024-03-22T13:00:22;7.47;;;7.47;;
50417;SDS011;36346;48.280;14.292;2024-03-22T13:02:49;7.80;;;7.80;;
50417;SDS011;36346;48.280;14.292;2024-03-22T13:05:16;8.46;;;8.46;;
50417;SDS011;36346;48.280;14.292;2024-03-22T13:07:43;8.30;;;8.30;;
50417;SDS011;36346;48.280;14.292;2024-03-22T13:10:10;6.90;;;6.90;;
50417;SDS011;36346;48.280;14.292;2024-03-22T13:12:37;8.22;;;8.22;;
50417;SDS011;36346;48.280;14.292;2024-03-22T13:15:04;8.15;;;8.15;;
50417;SDS011;36346;48.280;14.292;2024-03-22T13:17:32;7.79;;;7.79;;
50417;SDS011;36346;48.280;14.292;2024-03-22T13:19:59;8.03;;;8.03;;
50417;SDS011;36346;48.280;14.292;2024-03-22T13:22:26;7.85;;;7.85;;
50417;SDS011;36346;48.280;14.292;2024-03-22T13:24:53;8.00;;;8.00;;
50417;SDS011;36346;48.280;14.292;2024-03-22T13:27:21;8.77;;;8.77;;
50417;SDS011;36346;48.280;14.292;2024-03-22T13:29:49;7.89;;;7.89;;
50417;SDS011;36346;48.280;14.292;2024-03-22T13:32:16;7.95;;;7.95;;
50417;SDS011;36346;48.280;14.292;2024-03-22T13:34:43;7.83;;;7.83;;
50417;SDS011;36346;48.280;14.292;2024-03-22T13:37:10;6.88;;;6.88;;
50417;SDS011;36346;48.280;14.292;2024-03-22T13:39:37;7.00;;;7.00;;
50417;SDS011;36346;48.280;14.292;2024-03-22T13:42:05;7.24;;;7.24;;
50417;SDS011;36346;48.280;14.292;2024-03-22T13:44:32;7.48;;;7.48;;
50417;SDS011;36346;48.280;14.292;2024-03-22T13:47:00;7.29;;;7.29;;
50417;SDS011;36346;48.280;14.292;2024-03-22T13:49:27;7.31;;;7.31;;
50417;SDS011;36346;48.280;14.292;2024-03-22T13:51:54;7.18;;;7.18;;
50417;SDS011;36346;48.280;14.292;2024-03-22T13:54:25;6.80;;;6.80;;
50417;SDS011;36346;48.280;14.292;2024-03-22T13:56:52;6.66;;;6.66;;
50417;SDS011;36346;48.280;14.292;2024-03-22T13:59:19;6.53;;;6.53;;
50417;SDS011;36346;48.280;14.292;2024-03-22T14:01:46;6.38;;;6.38;;
50417;SDS011;36346;48.280;14.292;2024-03-22T14:04:14;6.69;;;6.69;;
50417;SDS011;36346;48.280;14.292;2024-03-22T14:06:42;6.78;;;6.78;;
50417;SDS011;36346;48.280;14.292;2024-03-22T14:09:09;6.28;;;6.28;;
50417;SDS011;36346;48.280;14.292;2024-03-22T14:11:36;6.58;;;6.58;;
50417;SDS011;36346;48.280;14.292;2024-03-22T14:14:03;6.36;;;6.36;;
50417;SDS011;36346;48.280;14.292;2024-03-22T14:16:30;6.17;;;6.17;;